createdAt,value
2023-04-25T00:01:38.566Z,84.75
2023-04-25T00:03:41.014Z,84.27
2023-04-25T00:05:42.824Z,83.38
2023-04-25T00:07:44.359Z,84.27
2023-04-25T00:09:45.823Z,84.31
2023-04-25T00:11:47.212Z,84.33
2023-04-25T00:13:49.468Z,84.11
2023-04-25T00:15:51.330Z,83.61
2023-04-25T00:17:53.967Z,84.13
2023-04-25T00:19:55.577Z,82.83
2023-04-25T00:21:57.088Z,82.85
2023-04-25T00:23:58.460Z,83.52
2023-04-25T00:25:59.891Z,83.77
2023-04-25T00:28:01.355Z,83.21
2023-04-25T00:30:03.595Z,82.96
2023-04-25T00:32:05.363Z,83.40
2023-04-25T00:34:07.655Z,82.65
2023-04-25T00:36:09.452Z,83.25
2023-04-25T00:38:10.820Z,82.92
2023-04-25T00:40:12.749Z,82.47
2023-04-25T00:42:14.761Z,83.03
2023-04-25T00:44:17.846Z,82.90
2023-04-25T00:46:19.290Z,82.94
2023-04-25T00:48:24.061Z,82.72
2023-04-25T00:50:25.626Z,82.98
2023-04-25T00:52:27.074Z,82.84
2023-04-25T00:54:28.725Z,82.81
2023-04-25T00:56:30.503Z,83.26
2023-04-25T00:58:31.980Z,82.27
2023-04-25T01:00:33.845Z,82.70
2023-04-25T01:02:36.719Z,83.60
2023-04-25T01:04:38.728Z,83.13
2023-04-25T01:06:41.430Z,82.90
2023-04-25T01:08:42.858Z,83.38
2023-04-25T01:10:44.320Z,82.38
2023-04-25T01:12:45.767Z,82.50
2023-04-25T01:14:47.881Z,83.60
2023-04-25T01:16:49.368Z,82.72
2023-04-25T01:18:52.189Z,82.90
2023-04-25T01:20:54.551Z,83.40
2023-04-25T01:22:56.461Z,83.00
2023-04-25T01:27:36.828Z,83.78
2023-04-25T01:29:38.498Z,83.70
2023-04-25T01:31:40.319Z,83.20
2023-04-25T01:33:41.817Z,83.31
2023-04-25T01:35:43.393Z,84.22
2023-04-25T01:37:45.950Z,84.60
2023-04-25T01:39:47.797Z,84.69
2023-04-25T01:41:50.076Z,84.59
2023-04-25T01:43:51.828Z,85.19
2023-04-25T01:45:53.590Z,84.53
2023-04-25T01:47:55.293Z,85.48
2023-04-25T01:49:56.978Z,84.84
2023-04-25T01:51:58.402Z,85.79
2023-04-25T01:54:01.074Z,85.52
2023-04-25T01:56:02.665Z,86.60
2023-04-25T01:58:04.668Z,86.84
2023-04-25T02:00:07.984Z,87.96
2023-04-25T02:02:09.407Z,88.11
2023-04-25T02:04:11.033Z,89.06
2023-04-25T02:06:12.648Z,89.25
2023-04-25T02:08:14.043Z,89.64
2023-04-25T02:10:15.968Z,89.69
2023-04-25T02:12:17.555Z,89.15
2023-04-25T02:14:19.011Z,88.17
2023-04-25T02:16:20.572Z,89.37
2023-04-25T02:18:22.321Z,89.48
2023-04-25T02:20:25.025Z,90.00
2023-04-25T02:22:27.803Z,90.06
2023-04-25T02:24:29.220Z,89.28
2023-04-25T02:26:31.227Z,89.72
2023-04-25T02:28:32.623Z,89.30
2023-04-25T02:30:34.087Z,89.87
2023-04-25T02:32:35.634Z,90.26
2023-04-25T02:34:37.533Z,89.03
2023-04-25T02:36:39.025Z,88.56
2023-04-25T02:38:40.724Z,89.75
2023-04-25T02:40:42.309Z,89.44
2023-04-25T02:42:43.791Z,89.29
2023-04-25T02:44:45.207Z,90.15
2023-04-25T02:46:46.694Z,89.22
2023-04-25T02:48:48.239Z,89.95
2023-04-25T02:50:49.728Z,89.65
2023-04-25T02:52:51.538Z,89.90
2023-04-25T02:54:52.979Z,89.66
2023-04-25T02:56:54.368Z,90.27
2023-04-25T02:58:56.018Z,89.53
2023-04-25T03:00:57.507Z,89.79
2023-04-25T03:02:59.118Z,89.73
2023-04-25T03:05:00.624Z,89.94
2023-04-25T03:07:02.073Z,89.70
2023-04-25T03:09:03.506Z,90.51
2023-04-25T03:11:04.984Z,90.16
2023-04-25T03:13:06.424Z,90.65
2023-04-25T03:15:08.441Z,90.99
2023-04-25T03:17:09.843Z,90.13
2023-04-25T03:19:11.316Z,90.79
2023-04-25T03:21:12.743Z,90.50
2023-04-25T03:23:14.153Z,90.60
2023-04-25T03:25:15.678Z,91.16
2023-04-25T03:27:18.100Z,90.50
2023-04-25T03:29:19.617Z,90.37
2023-04-25T03:31:21.563Z,90.07
2023-04-25T03:33:23.361Z,90.33
2023-04-25T03:35:25.935Z,90.93
2023-04-25T03:37:27.669Z,90.36
2023-04-25T03:39:29.053Z,89.97
2023-04-25T03:41:30.747Z,90.32
2023-04-25T03:43:32.226Z,90.36
2023-04-25T03:45:33.844Z,90.09
2023-04-25T03:47:35.344Z,90.63
2023-04-25T03:49:37.165Z,90.63
2023-04-25T03:51:38.976Z,90.13
2023-04-25T03:53:40.502Z,90.46
2023-04-25T03:55:43.524Z,89.60
2023-04-25T03:57:45.174Z,90.08
2023-04-25T03:59:46.602Z,89.18
2023-04-25T04:01:48.022Z,90.63
2023-04-25T04:03:49.754Z,90.13
2023-04-25T04:05:51.609Z,89.88
2023-04-25T04:07:53.148Z,89.29
2023-04-25T04:09:54.513Z,89.52
2023-04-25T04:11:56.009Z,88.91
2023-04-25T04:13:57.410Z,89.00
2023-04-25T04:15:58.998Z,89.65
2023-04-25T04:18:03.730Z,90.32
2023-04-25T04:20:06.913Z,89.54
2023-04-25T04:22:08.304Z,89.62
2023-04-25T04:24:09.826Z,89.71
2023-04-25T04:26:12.330Z,90.24
2023-04-25T04:28:14.148Z,90.06
2023-04-25T04:30:15.898Z,90.49
2023-04-25T04:32:18.240Z,91.42
2023-04-25T04:34:19.632Z,90.25
2023-04-25T04:36:22.782Z,89.55
2023-04-25T04:38:24.890Z,88.08
2023-04-25T04:40:26.552Z,88.69
2023-04-25T04:42:29.082Z,88.99
2023-04-25T04:44:33.604Z,89.01
2023-04-25T04:46:42.894Z,89.25
2023-04-25T04:48:45.468Z,86.12
2023-04-25T04:50:47.077Z,86.51
2023-04-25T04:52:48.519Z,85.13
2023-04-25T04:54:49.983Z,86.44
2023-04-25T04:56:52.144Z,87.58
2023-04-25T04:58:53.542Z,86.41
2023-04-25T05:00:54.997Z,87.93
2023-04-25T05:02:57.676Z,86.46
2023-04-25T05:04:59.298Z,85.19
2023-04-25T05:07:00.735Z,85.93
2023-04-25T05:09:02.152Z,85.43
2023-04-25T05:11:03.786Z,86.68
2023-04-25T05:13:05.199Z,86.87
2023-04-25T05:15:07.144Z,86.25
2023-04-25T05:17:09.491Z,87.04
2023-04-25T05:19:10.988Z,84.90
2023-04-25T05:21:12.389Z,85.74
2023-04-25T05:23:13.817Z,86.08
2023-04-25T05:25:15.227Z,86.15
2023-04-25T05:27:19.606Z,85.88
2023-04-25T05:29:21.008Z,86.36
2023-04-25T05:31:22.403Z,86.97
2023-04-25T05:33:23.828Z,86.77
2023-04-25T05:35:25.369Z,86.32
2023-04-25T05:37:26.853Z,86.21
2023-04-25T05:39:28.401Z,87.63
2023-04-25T05:41:29.801Z,85.54
2023-04-25T05:43:31.513Z,86.27
2023-04-25T05:45:32.893Z,86.39
2023-04-25T05:47:34.383Z,86.70
2023-04-25T05:49:35.925Z,86.38
2023-04-25T05:51:37.333Z,87.08
2023-04-25T05:53:38.777Z,87.45
2023-04-25T05:55:40.170Z,86.88
2023-04-25T05:57:42.464Z,85.87
2023-04-25T05:59:43.891Z,86.60
2023-04-25T06:01:45.561Z,85.79
2023-04-25T06:03:47.330Z,85.83
2023-04-25T06:05:48.960Z,85.41
2023-04-25T06:07:50.540Z,86.41
2023-04-25T06:09:52.035Z,85.95
2023-04-25T06:11:53.443Z,86.84
2023-04-25T06:13:55.213Z,85.35
2023-04-25T06:15:56.753Z,86.52
2023-04-25T06:17:58.258Z,85.88
2023-04-25T06:19:59.793Z,85.51
2023-04-25T06:22:01.449Z,85.97
2023-04-25T06:24:03.014Z,85.20
2023-04-25T06:26:04.670Z,85.22
2023-04-25T06:28:06.101Z,84.60
2023-04-25T06:30:08.149Z,85.74
2023-04-25T06:32:09.576Z,83.75
2023-04-25T06:34:11.136Z,84.93
2023-04-25T06:36:12.561Z,84.71
2023-04-25T06:38:14.058Z,85.27
2023-04-25T06:40:15.894Z,84.19
2023-04-25T06:42:17.330Z,84.74
2023-04-25T06:44:18.749Z,83.85
2023-04-25T06:46:20.402Z,83.88
2023-04-25T06:48:21.845Z,84.40
2023-04-25T06:50:23.306Z,83.96
2023-04-25T06:52:24.684Z,83.68
2023-04-25T06:54:28.085Z,83.59
2023-04-25T06:56:30.613Z,84.42
2023-04-25T06:58:32.016Z,83.05
2023-04-25T07:00:34.539Z,83.69
2023-04-25T07:02:36.725Z,83.25
2023-04-25T07:04:38.603Z,82.49
2023-04-25T07:06:43.521Z,82.90
2023-04-25T07:08:45.010Z,82.95
2023-04-25T07:10:49.663Z,82.17
2023-04-25T07:12:51.479Z,81.12
2023-04-25T07:14:52.911Z,81.71
2023-04-25T07:16:54.525Z,80.51
2023-04-25T07:18:56.344Z,81.71
2023-04-25T07:20:57.732Z,80.41
2023-04-25T07:22:59.122Z,77.56
2023-04-25T07:25:01.043Z,78.02
2023-04-25T07:27:03.398Z,78.93
2023-04-25T07:29:04.842Z,76.74
2023-04-25T07:31:06.344Z,75.14
2023-04-25T07:33:07.854Z,75.48
2023-04-25T07:35:09.518Z,78.04
2023-04-25T07:37:11.374Z,75.16
2023-04-25T07:39:12.850Z,76.26
2023-04-25T07:41:14.302Z,74.58
2023-04-25T07:43:17.617Z,76.18
2023-04-25T07:45:19.016Z,75.83
2023-04-25T07:47:20.600Z,72.23
2023-04-25T07:49:22.060Z,72.62
2023-04-25T07:51:23.594Z,73.36
2023-04-25T07:53:25.027Z,73.04
2023-04-25T07:55:27.193Z,72.95
2023-04-25T07:57:28.707Z,71.86
2023-04-25T07:59:30.503Z,73.68
2023-04-25T08:01:32.060Z,71.70
2023-04-25T08:03:33.668Z,71.26
2023-04-25T08:05:35.699Z,71.15
2023-04-25T08:07:37.196Z,70.68
2023-04-25T08:09:38.638Z,72.05
2023-04-25T08:11:40.568Z,71.40
2023-04-25T08:13:41.940Z,72.39
2023-04-25T08:15:43.429Z,71.26
2023-04-25T08:17:45.070Z,67.96
2023-04-25T08:19:46.590Z,69.84
2023-04-25T08:21:48.025Z,68.33
2023-04-25T08:23:49.404Z,70.73
2023-04-25T08:25:50.801Z,73.38
2023-04-25T08:27:52.234Z,68.53
2023-04-25T08:29:53.671Z,68.71
2023-04-25T08:31:55.401Z,68.83
2023-04-25T08:33:57.024Z,67.75
2023-04-25T08:35:58.600Z,68.71
2023-04-25T08:38:00.280Z,67.02
2023-04-25T08:40:01.709Z,69.73
2023-04-25T08:42:08.693Z,68.10
2023-04-25T08:44:11.548Z,65.66
2023-04-25T08:46:13.835Z,64.65
2023-04-25T08:48:17.105Z,67.09
2023-04-25T08:50:20.275Z,66.02
2023-04-25T08:52:27.273Z,66.47
2023-04-25T08:54:34.379Z,64.10
2023-04-25T08:56:44.673Z,65.69
2023-04-25T08:58:46.965Z,62.46
2023-04-25T09:00:49.449Z,62.94
2023-04-25T09:02:51.366Z,65.70
2023-04-25T09:04:55.953Z,62.10
2023-04-25T09:06:57.932Z,62.06
2023-04-25T09:09:05.736Z,63.40
2023-04-25T09:11:08.473Z,62.74
2023-04-25T09:13:15.990Z,63.40
2023-04-25T09:15:20.835Z,62.30
2023-04-25T09:17:22.704Z,60.74
2023-04-25T09:19:39.852Z,62.60
2023-04-25T09:21:42.726Z,60.04
2023-04-25T09:23:49.361Z,62.52
2023-04-25T09:25:53.289Z,63.13
2023-04-25T09:27:55.228Z,62.27
2023-04-25T09:30:01.532Z,63.18
2023-04-25T09:32:12.645Z,60.50
2023-04-25T09:34:16.641Z,60.49
2023-04-25T09:36:18.030Z,59.75
2023-04-25T09:38:19.521Z,60.79
2023-04-25T09:40:21.173Z,60.25
2023-04-25T09:42:27.659Z,62.62
2023-04-25T09:44:29.162Z,58.41
2023-04-25T09:46:37.446Z,56.13
2023-04-25T09:48:39.227Z,57.76
2023-04-25T09:50:41.284Z,59.58
2023-04-25T09:52:42.854Z,57.49
2023-04-25T09:54:46.079Z,58.41
2023-04-25T09:56:51.944Z,57.96
2023-04-25T09:58:55.860Z,60.36
2023-04-25T10:01:01.786Z,59.67
2023-04-25T10:03:06.507Z,59.30
2023-04-25T10:05:09.396Z,61.46
2023-04-25T10:07:12.049Z,61.51
2023-04-25T10:09:14.591Z,62.03
2023-04-25T10:11:17.442Z,61.46
2023-04-25T10:13:19.658Z,61.38
2023-04-25T10:15:22.788Z,63.54
2023-04-25T10:17:24.543Z,64.07
2023-04-25T10:19:27.815Z,64.48
2023-04-25T10:21:31.496Z,63.76
2023-04-25T10:23:33.280Z,65.11
2023-04-25T10:25:35.548Z,60.64
2023-04-25T10:27:38.084Z,59.19
2023-04-25T10:29:39.559Z,54.79
2023-04-25T10:31:48.262Z,57.30
2023-04-25T10:33:50.388Z,56.65
2023-04-25T10:35:52.039Z,58.73
2023-04-25T10:38:26.199Z,53.43
2023-04-25T10:40:27.838Z,54.71
2023-04-25T10:42:29.842Z,55.91
2023-04-25T10:44:32.204Z,52.28
2023-04-25T10:46:35.057Z,48.14
2023-04-25T10:48:36.596Z,46.47
2023-04-25T10:50:40.202Z,49.19
2023-04-25T10:52:41.930Z,48.37
2023-04-25T10:54:54.808Z,46.47
2023-04-25T10:57:01.284Z,47.83
2023-04-25T10:59:11.019Z,49.61
2023-04-25T11:01:20.279Z,48.19
2023-04-25T11:03:23.146Z,50.18
2023-04-25T11:05:51.153Z,50.69
2023-04-25T11:08:07.572Z,50.09
2023-04-25T11:10:09.899Z,51.41
2023-04-25T11:14:34.169Z,52.55
2023-04-25T11:14:38.115Z,51.78
2023-04-25T11:16:37.357Z,52.33
2023-04-25T11:18:39.810Z,50.24
2023-04-25T11:20:44.182Z,53.17
2023-04-25T11:22:47.592Z,52.98
2023-04-25T11:24:49.350Z,52.26
2023-04-25T11:26:51.032Z,53.49
2023-04-25T11:28:52.465Z,53.10
2023-04-25T11:30:53.953Z,53.69
2023-04-25T11:32:55.803Z,54.15
2023-04-25T11:34:58.601Z,54.02
2023-04-25T11:37:01.523Z,53.96
2023-04-25T11:39:03.019Z,53.57
2023-04-25T11:41:04.582Z,54.47
2023-04-25T11:43:06.030Z,54.40
2023-04-25T11:45:08.016Z,52.95
2023-04-25T11:47:09.477Z,54.46
2023-04-25T11:49:11.137Z,53.97
2023-04-25T11:51:12.897Z,54.23
2023-04-25T11:53:14.569Z,57.55
2023-04-25T11:55:17.888Z,54.37
2023-04-25T11:57:22.097Z,54.34
2023-04-25T11:59:27.500Z,55.47
2023-04-25T12:01:31.674Z,54.13
2023-04-25T12:03:34.253Z,52.30
2023-04-25T12:05:37.050Z,50.97
2023-04-25T12:07:39.198Z,53.57
2023-04-25T12:09:41.464Z,52.27
2023-04-25T12:11:44.653Z,52.00
2023-04-25T12:13:46.073Z,52.89
2023-04-25T12:15:47.712Z,49.75
2023-04-25T12:17:52.410Z,51.24
2023-04-25T12:19:53.851Z,52.75
2023-04-25T12:21:58.619Z,50.92
2023-04-25T12:24:28.591Z,48.54
2023-04-25T12:27:06.958Z,47.03
2023-04-25T12:29:47.859Z,48.66
2023-04-25T12:31:51.235Z,47.62
2023-04-25T12:33:52.753Z,47.54
2023-04-25T12:35:55.111Z,46.54
2023-04-25T12:37:56.745Z,50.11
2023-04-25T12:39:58.179Z,48.04
2023-04-25T12:42:00.655Z,47.65
2023-04-25T12:44:02.073Z,46.17
2023-04-25T12:46:04.164Z,47.76
2023-04-25T12:48:05.744Z,48.16
2023-04-25T12:50:07.738Z,45.95
2023-04-25T12:52:09.176Z,44.79
2023-04-25T12:54:10.968Z,43.95
2023-04-25T12:56:12.446Z,48.38
2023-04-25T12:58:18.417Z,45.89
2023-04-25T13:00:20.946Z,45.09
2023-04-25T13:02:22.928Z,47.19
2023-04-25T13:04:24.887Z,47.82
2023-04-25T13:06:27.178Z,47.54
2023-04-25T13:08:28.621Z,47.51
2023-04-25T13:10:30.486Z,47.51
2023-04-25T13:12:32.023Z,46.54
2023-04-25T13:14:33.447Z,46.37
2023-04-25T13:16:34.874Z,49.42
2023-04-25T13:18:36.349Z,47.15
2023-04-25T13:20:37.835Z,47.03
2023-04-25T13:22:40.293Z,46.25
2023-04-25T13:24:41.857Z,46.77
2023-04-25T13:26:43.393Z,46.58
2023-04-25T13:28:45.129Z,48.59
2023-04-25T13:30:46.770Z,45.77
2023-04-25T13:32:48.395Z,46.55
2023-04-25T13:34:49.805Z,45.60
2023-04-25T13:36:51.196Z,45.78
2023-04-25T13:38:52.610Z,46.05
2023-04-25T13:40:54.363Z,45.70
2023-04-25T13:42:57.055Z,46.20
2023-04-25T13:44:58.526Z,45.57
2023-04-25T13:47:01.658Z,45.08
2023-04-25T13:49:12.298Z,46.75
2023-04-25T13:51:14.547Z,46.11
2023-04-25T13:53:16.004Z,44.46
2023-04-25T13:55:17.507Z,44.46
2023-04-25T13:57:19.362Z,46.84
2023-04-25T13:59:20.783Z,44.92
2023-04-25T14:01:22.494Z,44.92
2023-04-25T14:03:24.043Z,48.12
2023-04-25T14:05:25.723Z,46.28
2023-04-25T14:07:27.229Z,47.60
2023-04-25T14:09:29.147Z,49.39
2023-04-25T14:11:30.637Z,50.91
2023-04-25T14:13:34.874Z,51.11
2023-04-25T14:15:36.361Z,52.25
2023-04-25T14:17:38.435Z,52.37
2023-04-25T14:19:44.153Z,53.90
2023-04-25T14:21:45.661Z,52.68
2023-04-25T14:23:49.530Z,51.20
2023-04-25T14:25:51.284Z,50.76
2023-04-25T14:27:52.799Z,50.54
2023-04-25T14:29:54.320Z,50.45
2023-04-25T14:31:57.383Z,51.93
2023-04-25T14:33:59.788Z,49.10
2023-04-25T14:36:01.385Z,47.44
2023-04-25T14:38:02.864Z,46.79
2023-04-25T14:40:05.574Z,47.19
2023-04-25T14:42:06.992Z,46.22
2023-04-25T14:44:09.262Z,47.34
2023-04-25T14:46:11.860Z,46.09
2023-04-25T14:48:13.599Z,47.76
2023-04-25T14:50:15.274Z,47.04
2023-04-25T14:52:16.804Z,46.77
2023-04-25T14:54:18.297Z,46.77
2023-04-25T14:56:19.965Z,36.89
2023-04-25T14:58:21.516Z,34.08
2023-04-25T15:00:23.496Z,39.33
2023-04-25T15:02:25.499Z,43.88
2023-04-25T15:04:27.439Z,42.70
2023-04-25T15:06:30.412Z,43.41
2023-04-25T15:08:32.199Z,46.56
2023-04-25T15:10:34.080Z,45.22
2023-04-25T15:12:35.524Z,45.17
2023-04-25T15:14:37.085Z,47.78
2023-04-25T15:16:38.522Z,48.63
2023-04-25T15:18:39.916Z,48.50
2023-04-25T15:20:41.419Z,47.80
2023-04-25T15:22:44.694Z,50.28
2023-04-25T15:24:46.159Z,49.72
2023-04-25T15:26:47.605Z,49.55
2023-04-25T15:28:49.465Z,51.97
2023-04-25T15:30:51.392Z,49.94
2023-04-25T15:32:52.814Z,47.31
2023-04-25T15:34:54.190Z,42.01
2023-04-25T15:36:55.632Z,46.48
2023-04-25T15:38:57.591Z,44.84
2023-04-25T15:40:59.041Z,45.83
2023-04-25T15:43:00.563Z,46.96
2023-04-25T15:45:02.691Z,49.09
2023-04-25T15:47:04.141Z,49.80
2023-04-25T15:49:05.571Z,49.04
2023-04-25T15:51:07.327Z,50.24
2023-04-25T15:53:08.782Z,50.13
2023-04-25T15:55:11.561Z,49.83
2023-04-25T15:57:13.217Z,46.43
2023-04-25T15:59:14.646Z,47.33
2023-04-25T16:01:16.518Z,48.70
2023-04-25T16:03:18.268Z,46.97
2023-04-25T16:05:20.397Z,43.52
2023-04-25T16:07:22.028Z,44.99
2023-04-25T16:09:23.433Z,43.32
2023-04-25T16:11:24.960Z,41.95
2023-04-25T16:13:27.458Z,42.48
2023-04-25T16:15:28.827Z,42.85
2023-04-25T16:17:30.398Z,31.85
2023-04-25T16:19:32.505Z,28.60
2023-04-25T16:21:33.850Z,27.12
2023-04-25T16:23:35.284Z,32.84
2023-04-25T16:25:36.638Z,34.52
2023-04-25T16:27:39.319Z,39.41
2023-04-25T16:29:41.346Z,40.01
2023-04-25T16:31:43.458Z,33.90
2023-04-25T16:33:44.950Z,28.02
2023-04-25T16:35:46.392Z,29.84
2023-04-25T16:37:48.309Z,37.04
2023-04-25T16:39:49.772Z,40.18
2023-04-25T16:41:51.945Z,39.56
2023-04-25T16:43:53.995Z,41.60
2023-04-25T16:45:55.908Z,42.93
2023-04-25T16:47:57.386Z,43.84
2023-04-25T16:50:00.932Z,44.21
2023-04-25T16:52:02.508Z,45.06
2023-04-25T16:54:04.064Z,45.60
2023-04-25T16:56:07.532Z,46.68
2023-04-25T16:58:11.881Z,46.55
2023-04-25T17:00:14.122Z,47.83
2023-04-25T17:02:15.868Z,46.45
2023-04-25T17:04:17.536Z,47.82
2023-04-25T17:06:19.218Z,47.74
2023-04-25T17:08:20.827Z,48.29
2023-04-25T17:10:22.915Z,49.46
2023-04-25T17:12:24.343Z,49.62
2023-04-25T17:14:26.881Z,50.28
2023-04-25T17:16:38.538Z,50.73
2023-04-25T17:18:40.012Z,51.17
2023-04-25T17:20:41.597Z,51.20
2023-04-25T17:22:43.537Z,51.27
2023-04-25T17:24:44.973Z,52.29
2023-04-25T17:26:48.248Z,52.96
2023-04-25T17:28:50.593Z,52.70
2023-04-25T17:30:52.222Z,53.09
2023-04-25T17:32:53.973Z,53.71
2023-04-25T17:34:56.742Z,53.74
2023-04-25T17:36:58.150Z,54.22
2023-04-25T17:38:59.564Z,53.88
2023-04-25T17:41:01.649Z,54.99
2023-04-25T17:43:03.134Z,55.41
2023-04-25T17:45:05.292Z,55.72
2023-04-25T17:47:08.626Z,55.59
2023-04-25T17:49:10.261Z,54.89
2023-04-25T17:51:11.729Z,55.11
2023-04-25T17:53:13.129Z,55.07
2023-04-25T17:55:14.567Z,54.84
2023-04-25T17:57:16.338Z,55.97
2023-04-25T17:59:19.231Z,55.60
2023-04-25T18:01:20.717Z,55.31
2023-04-25T18:03:22.482Z,55.50
2023-04-25T18:05:24.961Z,55.41
2023-04-25T18:07:26.390Z,56.35
2023-04-25T18:09:27.836Z,54.71
2023-04-25T18:11:29.975Z,55.88
2023-04-25T18:13:31.394Z,55.84
2023-04-25T18:15:32.801Z,57.49
2023-04-25T18:17:39.636Z,57.97
2023-04-25T18:19:41.136Z,57.09
2023-04-25T18:21:45.858Z,56.70
2023-04-25T18:23:47.520Z,57.38
2023-04-25T18:25:51.868Z,59.51
2023-04-25T18:27:53.437Z,57.13
2023-04-25T18:29:54.824Z,56.74
2023-04-25T18:31:56.344Z,56.96
2023-04-25T18:33:58.461Z,58.22
2023-04-25T18:36:00.018Z,57.39
2023-04-25T18:38:01.535Z,55.54
2023-04-25T18:40:06.595Z,56.63
2023-04-25T18:42:08.453Z,56.34
2023-04-25T18:44:09.819Z,57.30
2023-04-25T18:46:11.669Z,56.36
2023-04-25T18:48:13.177Z,56.33
2023-04-25T18:50:15.479Z,56.78
2023-04-25T18:52:17.687Z,58.15
2023-04-25T18:54:19.055Z,57.72
2023-04-25T18:56:22.599Z,58.38
2023-04-25T18:58:24.057Z,60.47
2023-04-25T19:00:25.500Z,60.41
2023-04-25T19:02:27.011Z,59.04
2023-04-25T19:04:29.729Z,60.23
2023-04-25T19:06:31.272Z,59.05
2023-04-25T19:08:32.690Z,60.90
2023-04-25T19:10:34.328Z,59.19
2023-04-25T19:12:35.720Z,61.17
2023-04-25T19:14:37.126Z,63.28
2023-04-25T19:19:05.813Z,62.89
2023-04-25T19:21:08.493Z,63.01
2023-04-25T19:23:11.017Z,62.89
2023-04-25T19:25:12.512Z,63.96
2023-04-25T19:29:44.205Z,61.85
2023-04-25T19:31:45.699Z,61.65
2023-04-25T19:33:47.242Z,62.03
2023-04-25T19:35:48.631Z,63.53
2023-04-25T19:37:50.463Z,62.86
2023-04-25T19:39:51.851Z,63.03
2023-04-25T19:41:54.354Z,63.37
2023-04-25T19:43:55.801Z,62.88
2023-04-25T19:45:57.604Z,63.61
2023-04-25T19:47:59.215Z,64.60
2023-04-25T19:50:01.189Z,64.64
2023-04-25T19:52:03.673Z,66.43
2023-04-25T19:54:05.445Z,63.84
2023-04-25T19:56:09.409Z,64.00
2023-04-25T19:58:10.787Z,64.61
2023-04-25T20:00:14.555Z,63.21
2023-04-25T20:02:18.256Z,62.33
2023-04-25T20:04:19.754Z,62.22
2023-04-25T20:06:21.566Z,62.37
2023-04-25T20:08:24.733Z,62.35
2023-04-25T20:10:27.321Z,64.19
2023-04-25T20:12:29.984Z,63.17
2023-04-25T20:14:33.021Z,63.08
2023-04-25T20:16:34.745Z,64.08
2023-04-25T20:18:36.276Z,64.55
2023-04-25T20:20:37.767Z,64.07
2023-04-25T20:22:40.585Z,64.02
2023-04-25T20:24:42.293Z,63.85
2023-04-25T20:26:45.079Z,64.47
2023-04-25T20:28:46.797Z,65.53
2023-04-25T20:30:48.429Z,65.26
2023-04-25T20:32:50.043Z,66.13
2023-04-25T20:34:51.607Z,64.18
2023-04-25T20:36:53.072Z,64.06
2023-04-25T20:38:54.823Z,66.88
2023-04-25T20:40:56.510Z,64.12
2023-04-25T20:42:58.174Z,64.62
2023-04-25T20:44:59.633Z,66.03
2023-04-25T20:47:01.018Z,67.11
2023-04-25T20:49:05.032Z,66.04
2023-04-25T20:51:07.170Z,67.37
2023-04-25T20:53:08.881Z,68.33
2023-04-25T20:55:11.704Z,69.26
2023-04-25T20:57:13.119Z,70.08
2023-04-25T20:59:15.310Z,69.52
2023-04-25T21:01:16.804Z,70.32
2023-04-25T21:03:18.513Z,70.61
2023-04-25T21:05:22.197Z,70.59
2023-04-25T21:07:23.644Z,71.56
2023-04-25T21:09:25.343Z,70.80
2023-04-25T21:11:27.444Z,70.22
2023-04-25T21:13:29.069Z,71.06
2023-04-25T21:15:30.767Z,71.60
2023-04-25T21:17:32.170Z,71.12
2023-04-25T21:19:33.956Z,71.70
2023-04-25T21:21:35.624Z,71.68
2023-04-25T21:23:37.064Z,72.01
2023-04-25T21:25:38.621Z,71.69
2023-04-25T21:27:39.999Z,72.11
2023-04-25T21:29:41.418Z,73.10
2023-04-25T21:31:43.586Z,73.30
2023-04-25T21:33:45.064Z,74.38
2023-04-25T21:35:46.459Z,73.18
2023-04-25T21:37:48.363Z,73.46
2023-04-25T21:39:49.985Z,74.38
2023-04-25T21:41:51.368Z,73.88
2023-04-25T21:43:59.186Z,73.87
2023-04-25T21:48:04.889Z,73.21
2023-04-25T21:50:07.355Z,73.86
2023-04-25T21:52:09.675Z,74.32
2023-04-25T21:54:11.054Z,74.40
2023-04-25T21:56:12.562Z,74.06
2023-04-25T21:58:14.066Z,74.99
2023-04-25T22:00:25.032Z,74.78
2023-04-25T22:02:27.799Z,75.12
2023-04-25T22:04:29.767Z,74.90
2023-04-25T22:06:32.154Z,75.02
2023-04-25T22:08:33.594Z,74.83
2023-04-25T22:10:35.394Z,75.42
2023-04-25T22:12:37.375Z,75.86
2023-04-25T22:14:38.908Z,75.14
2023-04-25T22:16:40.374Z,75.83
2023-04-25T22:18:42.234Z,75.92
2023-04-25T22:20:44.278Z,76.13
2023-04-25T22:22:46.326Z,75.21
2023-04-25T22:24:49.654Z,75.57
2023-04-25T22:26:51.173Z,76.66
2023-04-25T22:28:52.779Z,75.89
2023-04-25T22:30:54.870Z,76.28
2023-04-25T22:32:56.365Z,76.21
2023-04-25T22:34:57.796Z,76.61
2023-04-25T22:36:59.538Z,78.14
2023-04-25T22:39:00.956Z,77.81
2023-04-25T22:41:02.386Z,77.25
2023-04-25T22:43:03.775Z,76.14
2023-04-25T22:45:08.082Z,76.82
2023-04-25T22:47:09.530Z,76.90
2023-04-25T22:49:10.943Z,76.88
2023-04-25T22:51:12.613Z,76.71
2023-04-25T22:53:14.137Z,77.18
2023-04-25T22:55:15.599Z,77.52
2023-04-25T22:57:17.054Z,76.96
2023-04-25T22:59:20.691Z,78.39
2023-04-25T23:01:22.133Z,77.49
2023-04-25T23:03:23.686Z,77.61
2023-04-25T23:05:25.155Z,78.45
2023-04-25T23:07:26.515Z,78.54
2023-04-25T23:09:27.871Z,78.82
2023-04-25T23:11:29.340Z,78.90
2023-04-25T23:13:31.565Z,78.42
2023-04-25T23:15:33.264Z,78.73
2023-04-25T23:17:35.205Z,78.67
2023-04-25T23:19:36.663Z,78.59
2023-04-25T23:21:38.146Z,78.67
2023-04-25T23:23:39.900Z,79.17
2023-04-25T23:25:41.337Z,79.32
2023-04-25T23:27:43.622Z,78.80
2023-04-25T23:29:53.099Z,79.15
2023-04-25T23:31:54.520Z,79.14
2023-04-25T23:33:56.016Z,79.58
2023-04-25T23:35:57.446Z,80.20
2023-04-25T23:37:58.858Z,79.31
2023-04-25T23:40:00.340Z,78.66
2023-04-25T23:42:01.732Z,80.42
2023-04-25T23:44:03.534Z,79.90
2023-04-25T23:46:05.121Z,80.12
2023-04-25T23:48:06.719Z,80.75
2023-04-25T23:50:08.635Z,80.34
2023-04-25T23:52:10.064Z,79.88
2023-04-25T23:54:12.036Z,80.48
2023-04-25T23:56:13.433Z,80.44
2023-04-25T23:58:14.828Z,81.22
